sensor_id;sensor_type;location;lat;lon;timestamp;pressure;altitude;pressure_sealevel;temperature;humidity
56671;BME280;42545;50.054;8.306;2023-07-13T00:00:46;99877.03;;;17.53;61.68
56671;BME280;42545;50.054;8.306;2023-07-13T00:03:12;99884.13;;;17.52;60.82
56671;BME280;42545;50.054;8.306;2023-07-13T00:05:39;99884.09;;;17.57;60.66
56671;BME280;42545;50.054;8.306;2023-07-13T00:08:06;99883.06;;;17.65;60.35
56671;BME280;42545;50.054;8.306;2023-07-13T00:10:33;99877.72;;;17.67;59.85
56671;BME280;42545;50.054;8.306;2023-07-13T00:13:00;99884.66;;;17.76;59.49
56671;BME280;42545;50.054;8.306;2023-07-13T00:15:28;99884.59;;;17.82;59.16
56671;BME280;42545;50.054;8.306;2023-07-13T00:17:56;99869.41;;;17.87;58.96
56671;BME280;42545;50.054;8.306;2023-07-13T00:20:26;99882.66;;;17.93;58.94
56671;BME280;42545;50.054;8.306;2023-07-13T00:22:53;99881.72;;;17.96;58.61
56671;BME280;42545;50.054;8.306;2023-07-13T00:25:20;99887.00;;;17.99;58.91
56671;BME280;42545;50.054;8.306;2023-07-13T00:27:47;99895.88;;;18.01;58.97
56671;BME280;42545;50.054;8.306;2023-07-13T00:30:15;99896.78;;;18.00;58.73
56671;BME280;42545;50.054;8.306;2023-07-13T00:32:43;99889.69;;;17.97;58.58
56671;BME280;42545;50.054;8.306;2023-07-13T00:35:13;99897.66;;;18.00;59.11
56671;BME280;42545;50.054;8.306;2023-07-13T00:37:41;99885.28;;;17.96;59.06
56671;BME280;42545;50.054;8.306;2023-07-13T00:40:10;99895.97;;;17.95;59.10
56671;BME280;42545;50.054;8.306;2023-07-13T00:42:37;99897.81;;;17.91;58.68
56671;BME280;42545;50.054;8.306;2023-07-13T00:45:06;99905.84;;;17.90;58.74
56671;BME280;42545;50.054;8.306;2023-07-13T00:47:33;99908.53;;;17.88;58.78
56671;BME280;42545;50.054;8.306;2023-07-13T00:50:00;99903.22;;;17.86;58.57
56671;BME280;42545;50.054;8.306;2023-07-13T00:52:28;99906.78;;;17.87;59.05
56671;BME280;42545;50.054;8.306;2023-07-13T00:54:55;99904.13;;;17.85;59.86
56671;BME280;42545;50.054;8.306;2023-07-13T00:57:23;99916.63;;;17.82;59.96
56671;BME280;42545;50.054;8.306;2023-07-13T00:59:54;99915.78;;;17.78;59.79
56671;BME280;42545;50.054;8.306;2023-07-13T01:02:22;99914.88;;;17.78;59.94
56671;BME280;42545;50.054;8.306;2023-07-13T01:04:49;99914.94;;;17.76;59.49
56671;BME280;42545;50.054;8.306;2023-07-13T01:07:17;99909.59;;;17.76;59.18
56671;BME280;42545;50.054;8.306;2023-07-13T01:09:45;99909.53;;;17.78;59.60
56671;BME280;42545;50.054;8.306;2023-07-13T01:12:11;99904.19;;;17.79;59.91
56671;BME280;42545;50.054;8.306;2023-07-13T01:14:39;99907.78;;;17.77;60.18
56671;BME280;42545;50.054;8.306;2023-07-13T01:17:07;99909.66;;;17.72;60.13
56671;BME280;42545;50.054;8.306;2023-07-13T01:19:36;99907.91;;;17.71;60.28
56671;BME280;42545;50.054;8.306;2023-07-13T01:22:07;99914.16;;;17.68;60.33
56671;BME280;42545;50.054;8.306;2023-07-13T01:24:37;99917.75;;;17.65;60.43
56671;BME280;42545;50.054;8.306;2023-07-13T01:27:06;99916.00;;;17.63;60.50
56671;BME280;42545;50.054;8.306;2023-07-13T01:29:34;99908.00;;;17.61;60.30
56671;BME280;42545;50.054;8.306;2023-07-13T01:32:08;99900.97;;;17.57;59.97
56671;BME280;42545;50.054;8.306;2023-07-13T01:34:35;99916.91;;;17.62;60.15
56671;BME280;42545;50.054;8.306;2023-07-13T01:37:03;99905.31;;;17.64;60.61
56671;BME280;42545;50.054;8.306;2023-07-13T01:39:32;99922.22;;;17.63;60.98
56671;BME280;42545;50.054;8.306;2023-07-13T01:41:58;99912.53;;;17.58;60.92
56671;BME280;42545;50.054;8.306;2023-07-13T01:44:26;99922.41;;;17.49;61.09
56671;BME280;42545;50.054;8.306;2023-07-13T01:46:53;99915.41;;;17.42;61.47
56671;BME280;42545;50.054;8.306;2023-07-13T01:49:20;99908.41;;;17.34;61.32
56671;BME280;42545;50.054;8.306;2023-07-13T01:51:46;99912.91;;;17.28;61.82
56671;BME280;42545;50.054;8.306;2023-07-13T01:54:13;99913.94;;;17.21;62.05
56671;BME280;42545;50.054;8.306;2023-07-13T01:56:41;99923.75;;;17.16;62.68
56671;BME280;42545;50.054;8.306;2023-07-13T01:59:08;99911.41;;;17.10;63.26
56671;BME280;42545;50.054;8.306;2023-07-13T02:01:35;99900.81;;;17.03;63.12
56671;BME280;42545;50.054;8.306;2023-07-13T02:04:02;99908.00;;;16.98;63.26
56671;BME280;42545;50.054;8.306;2023-07-13T02:06:29;99906.25;;;16.94;63.39
56671;BME280;42545;50.054;8.306;2023-07-13T02:08:55;99921.38;;;16.90;63.65
56671;BME280;42545;50.054;8.306;2023-07-13T02:11:22;99923.25;;;16.85;64.05
56671;BME280;42545;50.054;8.306;2023-07-13T02:13:51;99914.38;;;16.80;64.09
56671;BME280;42545;50.054;8.306;2023-07-13T02:16:18;99918.88;;;16.75;64.29
56671;BME280;42545;50.054;8.306;2023-07-13T02:18:44;99924.22;;;16.71;64.67
56671;BME280;42545;50.054;8.306;2023-07-13T02:21:11;99928.69;;;16.69;65.07
56671;BME280;42545;50.054;8.306;2023-07-13T02:23:38;99926.94;;;16.68;65.37
56671;BME280;42545;50.054;8.306;2023-07-13T02:26:04;99928.75;;;16.65;65.70
56671;BME280;42545;50.054;8.306;2023-07-13T02:28:31;99935.84;;;16.64;65.80
56671;BME280;42545;50.054;8.306;2023-07-13T02:31:06;99933.25;;;16.58;66.03
56671;BME280;42545;50.054;8.306;2023-07-13T02:33:33;99931.53;;;16.54;66.26
56671;BME280;42545;50.054;8.306;2023-07-13T02:35:59;99928.91;;;16.49;66.61
56671;BME280;42545;50.054;8.306;2023-07-13T02:38:26;99923.66;;;16.43;66.91
56671;BME280;42545;50.054;8.306;2023-07-13T02:40:53;99922.81;;;16.38;67.58
56671;BME280;42545;50.054;8.306;2023-07-13T02:43:19;99917.56;;;16.30;67.67
56671;BME280;42545;50.054;8.306;2023-07-13T02:45:46;99921.16;;;16.25;67.76
56671;BME280;42545;50.054;8.306;2023-07-13T02:48:14;99922.97;;;16.23;67.78
56671;BME280;42545;50.054;8.306;2023-07-13T02:50:41;99919.41;;;16.21;67.57
56671;BME280;42545;50.054;8.306;2023-07-13T02:53:07;99922.97;;;16.18;67.70
56671;BME280;42545;50.054;8.306;2023-07-13T02:55:34;99923.88;;;16.17;67.53
56671;BME280;42545;50.054;8.306;2023-07-13T02:58:01;99930.97;;;16.17;67.15
56671;BME280;42545;50.054;8.306;2023-07-13T03:00:28;99924.78;;;16.18;67.12
56671;BME280;42545;50.054;8.306;2023-07-13T03:02:55;99918.53;;;16.20;66.64
56671;BME280;42545;50.054;8.306;2023-07-13T03:05:24;99922.97;;;16.23;66.34
56671;BME280;42545;50.054;8.306;2023-07-13T03:07:50;99923.84;;;16.22;66.03
56671;BME280;42545;50.054;8.306;2023-07-13T03:10:17;99917.66;;;16.20;65.89
56671;BME280;42545;50.054;8.306;2023-07-13T03:12:44;99926.41;;;16.34;66.05
56671;BME280;42545;50.054;8.306;2023-07-13T03:15:11;99932.59;;;16.36;65.63
56671;BME280;42545;50.054;8.306;2023-07-13T03:17:37;99933.47;;;16.35;65.16
56671;BME280;42545;50.054;8.306;2023-07-13T03:20:05;99937.94;;;16.33;65.04
56671;BME280;42545;50.054;8.306;2023-07-13T03:22:33;99939.72;;;16.32;65.00
56671;BME280;42545;50.054;8.306;2023-07-13T03:25:00;99941.53;;;16.30;65.18
56671;BME280;42545;50.054;8.306;2023-07-13T03:27:27;99942.44;;;16.26;64.90
56671;BME280;42545;50.054;8.306;2023-07-13T03:29:53;99949.53;;;16.24;64.86
56671;BME280;42545;50.054;8.306;2023-07-13T03:32:20;99956.66;;;16.21;64.94
56671;BME280;42545;50.054;8.306;2023-07-13T03:34:46;99949.59;;;16.17;64.52
56671;BME280;42545;50.054;8.306;2023-07-13T03:37:13;99969.16;;;16.16;64.56
56671;BME280;42545;50.054;8.306;2023-07-13T03:39:41;99961.19;;;16.11;64.56
56671;BME280;42545;50.054;8.306;2023-07-13T03:42:08;99966.53;;;16.08;64.82
56671;BME280;42545;50.054;8.306;2023-07-13T03:44:35;99966.59;;;16.03;64.70
56671;BME280;42545;50.054;8.306;2023-07-13T03:47:01;99970.16;;;15.99;64.52
56671;BME280;42545;50.054;8.306;2023-07-13T03:49:28;99968.38;;;15.97;64.48
56671;BME280;42545;50.054;8.306;2023-07-13T03:51:55;99976.41;;;15.93;64.64
56671;BME280;42545;50.054;8.306;2023-07-13T03:54:22;99978.22;;;15.90;64.99
56671;BME280;42545;50.054;8.306;2023-07-13T03:56:50;99975.56;;;15.87;65.00
56671;BME280;42545;50.054;8.306;2023-07-13T03:59:16;99980.91;;;15.84;65.15
56671;BME280;42545;50.054;8.306;2023-07-13T04:01:43;99987.13;;;15.81;65.33
56671;BME280;42545;50.054;8.306;2023-07-13T04:04:10;99986.28;;;15.78;65.46
56671;BME280;42545;50.054;8.306;2023-07-13T04:06:37;99983.63;;;15.74;65.50
56671;BME280;42545;50.054;8.306;2023-07-13T04:09:03;99973.00;;;15.67;65.70
56671;BME280;42545;50.054;8.306;2023-07-13T04:11:32;99985.38;;;15.71;65.81
56671;BME280;42545;50.054;8.306;2023-07-13T04:14:00;99978.28;;;15.71;66.32
56671;BME280;42545;50.054;8.306;2023-07-13T04:16:27;99981.84;;;15.70;66.73
56671;BME280;42545;50.054;8.306;2023-07-13T04:18:55;99976.53;;;15.69;66.95
56671;BME280;42545;50.054;8.306;2023-07-13T04:21:25;99985.38;;;15.68;67.53
56671;BME280;42545;50.054;8.306;2023-07-13T04:23:52;99989.81;;;15.66;67.88
56671;BME280;42545;50.054;8.306;2023-07-13T04:26:19;99990.75;;;15.62;68.02
56671;BME280;42545;50.054;8.306;2023-07-13T04:28:48;99989.00;;;15.61;68.28
56671;BME280;42545;50.054;8.306;2023-07-13T04:31:16;99987.22;;;15.60;68.35
56671;BME280;42545;50.054;8.306;2023-07-13T04:33:43;99990.75;;;15.60;68.78
56671;BME280;42545;50.054;8.306;2023-07-13T04:36:10;99983.69;;;15.61;69.32
56671;BME280;42545;50.054;8.306;2023-07-13T04:38:37;99972.13;;;15.58;69.97
56671;BME280;42545;50.054;8.306;2023-07-13T04:41:05;99983.63;;;15.68;70.21
56671;BME280;42545;50.054;8.306;2023-07-13T04:43:32;99985.38;;;15.69;70.82
56671;BME280;42545;50.054;8.306;2023-07-13T04:46:03;99984.50;;;15.72;70.95
56671;BME280;42545;50.054;8.306;2023-07-13T04:48:32;99987.16;;;15.72;71.17
56671;BME280;42545;50.054;8.306;2023-07-13T04:51:00;99987.16;;;15.76;71.72
56671;BME280;42545;50.054;8.306;2023-07-13T04:53:29;99984.47;;;15.80;72.28
56671;BME280;42545;50.054;8.306;2023-07-13T04:55:56;99994.22;;;15.81;72.32
56671;BME280;42545;50.054;8.306;2023-07-13T04:58:23;99988.88;;;15.82;72.45
56671;BME280;42545;50.054;8.306;2023-07-13T05:00:50;99987.09;;;15.87;72.65
56671;BME280;42545;50.054;8.306;2023-07-13T05:03:17;99995.06;;;15.90;73.05
56671;BME280;42545;50.054;8.306;2023-07-13T05:05:54;99995.88;;;15.99;73.54
56671;BME280;42545;50.054;8.306;2023-07-13T05:08:21;99989.63;;;16.06;73.79
56671;BME280;42545;50.054;8.306;2023-07-13T05:10:47;99991.38;;;16.10;73.46
56671;BME280;42545;50.054;8.306;2023-07-13T05:13:14;99992.19;;;16.18;73.38
56671;BME280;42545;50.054;8.306;2023-07-13T05:15:43;99994.78;;;16.24;73.20
56671;BME280;42545;50.054;8.306;2023-07-13T05:18:09;100002.75;;;16.32;72.59
56671;BME280;42545;50.054;8.306;2023-07-13T05:20:36;100003.56;;;16.39;72.25
56671;BME280;42545;50.054;8.306;2023-07-13T05:23:04;100001.75;;;16.42;71.97
56671;BME280;42545;50.054;8.306;2023-07-13T05:25:31;100007.94;;;16.49;71.48
56671;BME280;42545;50.054;8.306;2023-07-13T05:27:59;100004.31;;;16.55;71.55
56671;BME280;42545;50.054;8.306;2023-07-13T05:30:26;100013.06;;;16.69;70.74
56671;BME280;42545;50.054;8.306;2023-07-13T05:32:53;100006.78;;;16.76;70.15
56671;BME280;42545;50.054;8.306;2023-07-13T05:35:21;100018.28;;;16.86;68.95
56671;BME280;42545;50.054;8.306;2023-07-13T05:37:49;99996.97;;;16.84;67.57
56671;BME280;42545;50.054;8.306;2023-07-13T05:40:17;100005.69;;;17.00;66.35
56671;BME280;42545;50.054;8.306;2023-07-13T05:42:44;100007.38;;;17.09;66.51
56671;BME280;42545;50.054;8.306;2023-07-13T05:45:10;100011.75;;;17.16;64.46
56671;BME280;42545;50.054;8.306;2023-07-13T05:47:37;100011.69;;;17.21;64.32
56671;BME280;42545;50.054;8.306;2023-07-13T05:50:06;100011.53;;;17.33;64.37
56671;BME280;42545;50.054;8.306;2023-07-13T05:52:33;100016.78;;;17.41;63.69
56671;BME280;42545;50.054;8.306;2023-07-13T05:55:00;100012.25;;;17.47;63.18
56671;BME280;42545;50.054;8.306;2023-07-13T05:57:28;100013.94;;;17.55;62.32
56671;BME280;42545;50.054;8.306;2023-07-13T05:59:54;100010.28;;;17.63;62.86
56671;BME280;42545;50.054;8.306;2023-07-13T06:02:21;100019.06;;;17.72;63.00
56671;BME280;42545;50.054;8.306;2023-07-13T06:04:48;100018.06;;;17.79;62.73
56671;BME280;42545;50.054;8.306;2023-07-13T06:07:15;100018.03;;;17.83;62.77
56671;BME280;42545;50.054;8.306;2023-07-13T06:09:41;100017.94;;;17.90;62.13
56671;BME280;42545;50.054;8.306;2023-07-13T06:12:08;100025.84;;;17.97;61.95
56671;BME280;42545;50.054;8.306;2023-07-13T06:14:37;100025.72;;;18.05;61.57
56671;BME280;42545;50.054;8.306;2023-07-13T06:17:04;100017.66;;;18.11;61.53
56671;BME280;42545;50.054;8.306;2023-07-13T06:19:31;100017.53;;;18.19;61.33
56671;BME280;42545;50.054;8.306;2023-07-13T06:21:57;100023.66;;;18.25;61.16
56671;BME280;42545;50.054;8.306;2023-07-13T06:24:25;100025.34;;;18.31;60.38
56671;BME280;42545;50.054;8.306;2023-07-13T06:26:51;100026.94;;;18.41;59.76
56671;BME280;42545;50.054;8.306;2023-07-13T06:29:18;100033.03;;;18.51;59.25
56671;BME280;42545;50.054;8.306;2023-07-13T06:31:46;100030.22;;;18.60;58.48
56671;BME280;42545;50.054;8.306;2023-07-13T06:34:13;100032.72;;;18.70;58.30
56671;BME280;42545;50.054;8.306;2023-07-13T06:36:40;100029.91;;;18.77;58.27
56671;BME280;42545;50.054;8.306;2023-07-13T06:39:07;100039.63;;;18.85;57.33
56671;BME280;42545;50.054;8.306;2023-07-13T06:41:36;100039.47;;;18.94;57.38
56671;BME280;42545;50.054;8.306;2023-07-13T06:44:04;100044.59;;;19.06;57.12
56671;BME280;42545;50.054;8.306;2023-07-13T06:46:32;100038.25;;;19.12;55.71
56671;BME280;42545;50.054;8.306;2023-07-13T06:48:59;100044.41;;;19.15;55.57
56671;BME280;42545;50.054;8.306;2023-07-13T06:51:26;100042.50;;;19.22;55.29
56671;BME280;42545;50.054;8.306;2023-07-13T06:53:53;100036.16;;;19.28;55.65
56671;BME280;42545;50.054;8.306;2023-07-13T06:56:22;100041.25;;;19.40;55.87
56671;BME280;42545;50.054;8.306;2023-07-13T06:58:48;100044.72;;;19.45;55.65
56671;BME280;42545;50.054;8.306;2023-07-13T07:01:15;100033.94;;;19.50;55.52
56671;BME280;42545;50.054;8.306;2023-07-13T07:03:42;100034.66;;;19.56;55.21
56671;BME280;42545;50.054;8.306;2023-07-13T07:06:17;100045.16;;;19.67;55.00
56671;BME280;42545;50.054;8.306;2023-07-13T07:08:44;100037.97;;;19.69;54.62
56671;BME280;42545;50.054;8.306;2023-07-13T07:11:13;100046.88;;;19.71;54.90
56671;BME280;42545;50.054;8.306;2023-07-13T07:13:40;100051.97;;;19.84;55.39
56671;BME280;42545;50.054;8.306;2023-07-13T07:16:07;100050.06;;;19.89;54.44
56671;BME280;42545;50.054;8.306;2023-07-13T07:18:34;100057.97;;;19.95;54.11
56671;BME280;42545;50.054;8.306;2023-07-13T07:21:00;100054.34;;;19.97;53.75
56671;BME280;42545;50.054;8.306;2023-07-13T07:23:29;100052.38;;;20.06;54.59
56671;BME280;42545;50.054;8.306;2023-07-13T07:25:57;100056.63;;;20.16;54.64
56671;BME280;42545;50.054;8.306;2023-07-13T07:28:24;100059.03;;;20.27;53.76
56671;BME280;42545;50.054;8.306;2023-07-13T07:30:53;100052.63;;;20.34;52.92
56671;BME280;42545;50.054;8.306;2023-07-13T07:33:19;100052.47;;;20.40;52.90
56671;BME280;42545;50.054;8.306;2023-07-13T07:35:46;100058.56;;;20.47;52.92
56671;BME280;42545;50.054;8.306;2023-07-13T07:38:12;100053.03;;;20.54;52.37
56671;BME280;42545;50.054;8.306;2023-07-13T07:40:42;100060.03;;;20.60;52.13
56671;BME280;42545;50.054;8.306;2023-07-13T07:43:11;100065.31;;;20.65;52.44
56671;BME280;42545;50.054;8.306;2023-07-13T07:45:39;100058.06;;;20.70;52.19
56671;BME280;42545;50.054;8.306;2023-07-13T07:48:07;100066.72;;;20.80;50.68
56671;BME280;42545;50.054;8.306;2023-07-13T07:50:35;100064.72;;;20.88;50.90
56671;BME280;42545;50.054;8.306;2023-07-13T07:53:02;100056.53;;;20.94;50.56
56671;BME280;42545;50.054;8.306;2023-07-13T07:55:33;100070.63;;;21.01;49.07
56671;BME280;42545;50.054;8.306;2023-07-13T07:58:01;100060.69;;;21.06;49.22
56671;BME280;42545;50.054;8.306;2023-07-13T08:00:27;100068.66;;;21.09;48.73
56671;BME280;42545;50.054;8.306;2023-07-13T08:02:55;100061.47;;;21.09;46.67
56671;BME280;42545;50.054;8.306;2023-07-13T08:05:22;100058.78;;;21.09;46.59
56671;BME280;42545;50.054;8.306;2023-07-13T08:07:48;100060.44;;;21.15;48.10
56671;BME280;42545;50.054;8.306;2023-07-13T08:10:15;100069.16;;;21.23;48.19
56671;BME280;42545;50.054;8.306;2023-07-13T08:12:42;100064.66;;;21.24;46.84
56671;BME280;42545;50.054;8.306;2023-07-13T08:15:13;100069.91;;;21.28;47.03
56671;BME280;42545;50.054;8.306;2023-07-13T08:17:40;100069.66;;;21.38;46.00
56671;BME280;42545;50.054;8.306;2023-07-13T08:20:08;100067.84;;;21.38;46.09
56671;BME280;42545;50.054;8.306;2023-07-13T08:22:35;100069.56;;;21.41;45.42
56671;BME280;42545;50.054;8.306;2023-07-13T08:25:01;100069.47;;;21.44;45.76
56671;BME280;42545;50.054;8.306;2023-07-13T08:27:30;100063.91;;;21.52;44.57
56671;BME280;42545;50.054;8.306;2023-07-13T08:29:57;100067.31;;;21.58;44.68
56671;BME280;42545;50.054;8.306;2023-07-13T08:32:25;100059.03;;;21.66;44.42
56671;BME280;42545;50.054;8.306;2023-07-13T08:34:54;100069.78;;;21.66;44.38
56671;BME280;42545;50.054;8.306;2023-07-13T08:37:21;100060.81;;;21.67;44.52
56671;BME280;42545;50.054;8.306;2023-07-13T08:39:47;100066.88;;;21.74;45.78
56671;BME280;42545;50.054;8.306;2023-07-13T08:42:22;100060.53;;;21.76;45.37
56671;BME280;42545;50.054;8.306;2023-07-13T08:44:59;100062.19;;;21.80;45.20
56671;BME280;42545;50.054;8.306;2023-07-13T08:47:33;100047.06;;;21.78;43.76
56671;BME280;42545;50.054;8.306;2023-07-13T08:50:04;100053.06;;;21.86;45.20
56671;BME280;42545;50.054;8.306;2023-07-13T08:52:34;100059.94;;;21.96;44.54
56671;BME280;42545;50.054;8.306;2023-07-13T08:55:09;100064.19;;;22.03;43.92
56671;BME280;42545;50.054;8.306;2023-07-13T08:57:39;100062.06;;;22.15;43.67
56671;BME280;42545;50.054;8.306;2023-07-13T09:00:09;100060.81;;;22.25;42.81
56671;BME280;42545;50.054;8.306;2023-07-13T09:02:44;100064.31;;;22.29;43.25
56671;BME280;42545;50.054;8.306;2023-07-13T09:05:14;100072.47;;;22.25;42.54
56671;BME280;42545;50.054;8.306;2023-07-13T09:07:58;100058.53;;;22.13;41.12
56671;BME280;42545;50.054;8.306;2023-07-13T09:10:30;100059.41;;;22.13;42.61
56671;BME280;42545;50.054;8.306;2023-07-13T09:13:13;100061.97;;;22.18;42.71
56671;BME280;42545;50.054;8.306;2023-07-13T09:15:45;100067.13;;;22.24;42.24
56671;BME280;42545;50.054;8.306;2023-07-13T09:18:21;100067.75;;;22.34;42.97
56671;BME280;42545;50.054;8.306;2023-07-13T09:20:54;100059.38;;;22.43;42.27
56671;BME280;42545;50.054;8.306;2023-07-13T09:23:26;100067.03;;;22.57;42.00
56671;BME280;42545;50.054;8.306;2023-07-13T09:26:01;100064.06;;;22.64;42.48
56671;BME280;42545;50.054;8.306;2023-07-13T09:28:37;100056.72;;;22.70;41.86
56671;BME280;42545;50.054;8.306;2023-07-13T09:31:09;100050.34;;;22.72;41.26
56671;BME280;42545;50.054;8.306;2023-07-13T09:33:40;100052.94;;;22.75;41.00
56671;BME280;42545;50.054;8.306;2023-07-13T09:36:19;100056.69;;;22.71;41.10
56671;BME280;42545;50.054;8.306;2023-07-13T09:38:48;100063.97;;;22.68;41.74
56671;BME280;42545;50.054;8.306;2023-07-13T09:41:21;100059.63;;;22.63;41.37
56671;BME280;42545;50.054;8.306;2023-07-13T09:44:07;100052.63;;;22.58;41.91
56671;BME280;42545;50.054;8.306;2023-07-13T09:46:37;100052.28;;;22.69;41.99
56671;BME280;42545;50.054;8.306;2023-07-13T09:49:10;100054.41;;;22.86;42.13
56671;BME280;42545;50.054;8.306;2023-07-13T09:51:37;100051.34;;;22.96;41.76
56671;BME280;42545;50.054;8.306;2023-07-13T09:54:04;100050.09;;;23.07;41.44
56671;BME280;42545;50.054;8.306;2023-07-13T09:56:31;100044.44;;;23.14;42.04
56671;BME280;42545;50.054;8.306;2023-07-13T09:58:58;100054.41;;;23.12;40.20
56671;BME280;42545;50.054;8.306;2023-07-13T10:01:32;100052.16;;;22.98;41.30
56671;BME280;42545;50.054;8.306;2023-07-13T10:03:59;100056.66;;;22.98;42.05
56671;BME280;42545;50.054;8.306;2023-07-13T10:06:28;100051.06;;;23.06;41.87
56671;BME280;42545;50.054;8.306;2023-07-13T10:08:56;100055.16;;;23.16;42.41
56671;BME280;42545;50.054;8.306;2023-07-13T10:11:26;100052.81;;;23.32;41.26
56671;BME280;42545;50.054;8.306;2023-07-13T10:13:56;100050.84;;;23.37;40.35
56671;BME280;42545;50.054;8.306;2023-07-13T10:16:26;100050.78;;;23.38;41.05
56671;BME280;42545;50.054;8.306;2023-07-13T10:18:58;100054.44;;;23.36;40.30
56671;BME280;42545;50.054;8.306;2023-07-13T10:21:32;100043.69;;;23.36;40.59
56671;BME280;42545;50.054;8.306;2023-07-13T10:24:05;100038.91;;;23.44;40.16
56671;BME280;42545;50.054;8.306;2023-07-13T10:26:38;100040.91;;;23.63;40.13
56671;BME280;42545;50.054;8.306;2023-07-13T10:29:12;100045.47;;;23.60;38.90
56671;BME280;42545;50.054;8.306;2023-07-13T10:31:40;100042.84;;;23.59;39.91
56671;BME280;42545;50.054;8.306;2023-07-13T10:34:10;100037.44;;;23.59;37.34
56671;BME280;42545;50.054;8.306;2023-07-13T10:36:44;100050.91;;;23.59;37.95
56671;BME280;42545;50.054;8.306;2023-07-13T10:39:16;100042.72;;;23.62;37.93
56671;BME280;42545;50.054;8.306;2023-07-13T10:41:46;100039.38;;;23.81;38.65
56671;BME280;42545;50.054;8.306;2023-07-13T10:44:20;100037.69;;;24.00;38.54
56671;BME280;42545;50.054;8.306;2023-07-13T10:46:51;100038.16;;;24.11;38.19
56671;BME280;42545;50.054;8.306;2023-07-13T10:49:18;100043.78;;;24.27;37.24
56671;BME280;42545;50.054;8.306;2023-07-13T10:51:47;100052.31;;;24.38;36.18
56671;BME280;42545;50.054;8.306;2023-07-13T10:54:17;100042.38;;;24.41;36.66
56671;BME280;42545;50.054;8.306;2023-07-13T10:56:49;100041.25;;;24.46;35.94
56671;BME280;42545;50.054;8.306;2023-07-13T10:59:17;100038.72;;;24.42;36.12
56671;BME280;42545;50.054;8.306;2023-07-13T11:01:54;100041.38;;;24.43;36.76
56671;BME280;42545;50.054;8.306;2023-07-13T11:04:21;100039.81;;;24.60;36.51
56671;BME280;42545;50.054;8.306;2023-07-13T11:06:53;100046.31;;;24.76;36.51
56671;BME280;42545;50.054;8.306;2023-07-13T11:09:35;100041.63;;;24.81;35.08
56671;BME280;42545;50.054;8.306;2023-07-13T11:12:10;100041.91;;;24.96;36.15
56671;BME280;42545;50.054;8.306;2023-07-13T11:15:10;100029.47;;;24.91;36.10
56671;BME280;42545;50.054;8.306;2023-07-13T11:17:47;100039.94;;;24.99;36.59
56671;BME280;42545;50.054;8.306;2023-07-13T11:20:31;100041.22;;;24.90;36.40
56671;BME280;42545;50.054;8.306;2023-07-13T11:23:27;100039.84;;;24.80;36.99
56671;BME280;42545;50.054;8.306;2023-07-13T11:25:55;100038.16;;;24.78;36.95
56671;BME280;42545;50.054;8.306;2023-07-13T11:28:25;100038.34;;;24.73;36.06
56671;BME280;42545;50.054;8.306;2023-07-13T11:31:03;100040.13;;;24.74;37.18
56671;BME280;42545;50.054;8.306;2023-07-13T11:33:50;100039.03;;;24.78;35.88
56671;BME280;42545;50.054;8.306;2023-07-13T11:36:19;100034.09;;;24.88;36.41
56671;BME280;42545;50.054;8.306;2023-07-13T11:38:51;100044.53;;;24.97;36.61
56671;BME280;42545;50.054;8.306;2023-07-13T11:41:25;100042.56;;;25.01;35.28
56671;BME280;42545;50.054;8.306;2023-07-13T11:43:55;100036.03;;;25.06;35.63
56671;BME280;42545;50.054;8.306;2023-07-13T11:46:23;100042.09;;;25.11;35.17
56671;BME280;42545;50.054;8.306;2023-07-13T11:48:51;100045.28;;;25.21;35.62
56671;BME280;42545;50.054;8.306;2023-07-13T11:51:21;100052.03;;;25.31;35.51
56671;BME280;42545;50.054;8.306;2023-07-13T11:53:53;100036.25;;;25.43;35.34
56671;BME280;42545;50.054;8.306;2023-07-13T11:56:21;100025.50;;;25.41;34.89
56671;BME280;42545;50.054;8.306;2023-07-13T11:58:50;100043.53;;;25.41;34.61
56671;BME280;42545;50.054;8.306;2023-07-13T12:01:22;100038.28;;;25.38;34.51
56671;BME280;42545;50.054;8.306;2023-07-13T12:03:50;100029.06;;;25.21;34.04
56671;BME280;42545;50.054;8.306;2023-07-13T12:06:26;100040.81;;;25.20;34.48
56671;BME280;42545;50.054;8.306;2023-07-13T12:09:00;100038.88;;;25.24;35.17
56671;BME280;42545;50.054;8.306;2023-07-13T12:11:29;100029.06;;;25.21;34.93
56671;BME280;42545;50.054;8.306;2023-07-13T12:13:56;100033.13;;;25.31;34.69
56671;BME280;42545;50.054;8.306;2023-07-13T12:16:27;100045.34;;;25.40;35.04
56671;BME280;42545;50.054;8.306;2023-07-13T12:18:56;100049.66;;;25.44;35.27
56671;BME280;42545;50.054;8.306;2023-07-13T12:21:29;100042.88;;;25.36;34.89
56671;BME280;42545;50.054;8.306;2023-07-13T12:23:59;100042.75;;;25.17;34.58
56671;BME280;42545;50.054;8.306;2023-07-13T12:26:28;100037.25;;;25.20;35.71
56671;BME280;42545;50.054;8.306;2023-07-13T12:28:56;100044.22;;;25.25;35.59
56671;BME280;42545;50.054;8.306;2023-07-13T12:31:30;100047.72;;;25.27;35.94
56671;BME280;42545;50.054;8.306;2023-07-13T12:33:59;100041.84;;;25.18;36.32
56671;BME280;42545;50.054;8.306;2023-07-13T12:36:26;100060.34;;;25.06;35.74
56671;BME280;42545;50.054;8.306;2023-07-13T12:38:57;100056.94;;;24.81;35.87
56671;BME280;42545;50.054;8.306;2023-07-13T12:41:31;100058.81;;;24.56;35.76
56671;BME280;42545;50.054;8.306;2023-07-13T12:43:59;100060.41;;;24.38;36.39
56671;BME280;42545;50.054;8.306;2023-07-13T12:46:26;100062.81;;;24.24;36.18
56671;BME280;42545;50.054;8.306;2023-07-13T12:48:54;100069.50;;;24.14;36.52
56671;BME280;42545;50.054;8.306;2023-07-13T12:51:25;100069.81;;;24.06;36.99
56671;BME280;42545;50.054;8.306;2023-07-13T12:53:57;100057.47;;;24.01;37.21
56671;BME280;42545;50.054;8.306;2023-07-13T12:56:26;100065.34;;;24.05;37.43
56671;BME280;42545;50.054;8.306;2023-07-13T12:58:58;100076.94;;;24.07;37.39
56671;BME280;42545;50.054;8.306;2023-07-13T13:01:28;100063.50;;;24.06;36.42
56671;BME280;42545;50.054;8.306;2023-07-13T13:03:55;100062.59;;;24.07;36.94